createdAt,value
2023-11-26T00:00:35.149Z,56.21
2023-11-26T00:03:02.020Z,55.53
2023-11-26T00:05:29.192Z,55.45
2023-11-26T00:07:55.712Z,55.80
2023-11-26T00:10:22.213Z,56.67
2023-11-26T00:12:48.704Z,56.29
2023-11-26T00:15:15.228Z,55.60
2023-11-26T00:17:41.896Z,55.23
2023-11-26T00:20:08.528Z,55.50
2023-11-26T00:22:35.172Z,55.25
2023-11-26T00:25:01.684Z,55.95
2023-11-26T00:27:28.166Z,55.75
2023-11-26T00:29:55.476Z,56.04
2023-11-26T00:32:22.076Z,55.80
2023-11-26T00:34:49.249Z,56.38
2023-11-26T00:37:15.941Z,55.78
2023-11-26T00:39:42.527Z,56.05
2023-11-26T00:42:08.994Z,55.71
2023-11-26T00:44:36.531Z,56.03
2023-11-26T00:47:09.113Z,55.11
2023-11-26T00:49:35.742Z,54.61
2023-11-26T00:52:02.193Z,56.10
2023-11-26T00:54:28.650Z,56.17
2023-11-26T00:56:55.123Z,55.63
2023-11-26T00:59:21.624Z,55.19
2023-11-26T01:01:48.848Z,55.95
2023-11-26T01:04:15.276Z,56.21
2023-11-26T01:06:42.747Z,56.54
2023-11-26T01:09:09.221Z,54.82
2023-11-26T01:11:36.420Z,56.42
2023-11-26T01:14:02.982Z,55.83
2023-11-26T01:16:29.777Z,57.60
2023-11-26T01:18:56.460Z,57.89
2023-11-26T01:21:23.293Z,57.78
2023-11-26T01:23:49.902Z,56.95
2023-11-26T01:26:17.075Z,58.06
2023-11-26T01:28:43.550Z,56.78
2023-11-26T01:31:10.137Z,55.82
2023-11-26T01:33:36.681Z,55.49
2023-11-26T01:36:03.230Z,55.40
2023-11-26T01:38:29.774Z,55.88
2023-11-26T01:40:56.290Z,55.71
2023-11-26T01:43:22.724Z,54.94
2023-11-26T01:45:49.236Z,56.17
2023-11-26T01:48:15.641Z,57.66
2023-11-26T01:50:42.455Z,56.80
2023-11-26T01:53:08.952Z,55.55
2023-11-26T01:55:35.492Z,55.22
2023-11-26T01:58:01.989Z,55.85
2023-11-26T02:00:28.891Z,55.05
2023-11-26T02:02:55.510Z,55.53
2023-11-26T02:05:24.660Z,55.36
2023-11-26T02:07:51.403Z,54.06
2023-11-26T02:10:17.884Z,54.96
2023-11-26T02:12:44.321Z,54.56
2023-11-26T02:15:10.788Z,56.10
2023-11-26T02:17:37.311Z,58.46
2023-11-26T02:20:04.039Z,56.11
2023-11-26T02:22:30.770Z,55.64
2023-11-26T02:24:57.611Z,54.53
2023-11-26T02:27:24.217Z,54.57
2023-11-26T02:29:51.698Z,55.52
2023-11-26T02:32:18.242Z,54.97
2023-11-26T02:34:44.728Z,55.93
2023-11-26T02:37:11.676Z,55.33
2023-11-26T02:39:39.016Z,58.67
2023-11-26T02:42:05.928Z,58.83
2023-11-26T02:44:32.644Z,56.80
2023-11-26T02:46:59.322Z,56.29
2023-11-26T02:49:27.236Z,54.82
2023-11-26T02:51:54.069Z,55.86
2023-11-26T02:54:20.620Z,55.83
2023-11-26T02:56:47.177Z,56.00
2023-11-26T02:59:13.795Z,56.03
2023-11-26T03:01:40.898Z,54.62
2023-11-26T03:04:07.461Z,55.89
2023-11-26T03:06:34.200Z,57.04
2023-11-26T03:09:03.357Z,56.17
2023-11-26T03:11:29.850Z,55.07
2023-11-26T03:13:56.500Z,54.23
2023-11-26T03:16:23.245Z,55.85
2023-11-26T03:18:50.095Z,56.76
2023-11-26T03:21:17.092Z,56.27
2023-11-26T03:23:43.634Z,55.49
2023-11-26T03:26:10.251Z,54.73
2023-11-26T03:28:36.907Z,53.94
2023-11-26T03:31:03.648Z,55.31
2023-11-26T03:33:30.181Z,55.92
2023-11-26T03:35:56.716Z,54.85
2023-11-26T03:38:23.200Z,56.16
2023-11-26T03:40:49.742Z,56.26
2023-11-26T03:43:16.269Z,55.12
2023-11-26T03:45:42.716Z,56.02
2023-11-26T03:48:09.611Z,54.08
2023-11-26T03:50:36.169Z,55.17
2023-11-26T03:53:02.755Z,55.32
2023-11-26T03:55:29.252Z,55.40
2023-11-26T03:57:55.789Z,55.66
2023-11-26T04:00:22.256Z,54.78
2023-11-26T04:02:48.949Z,54.89
2023-11-26T04:05:16.008Z,54.56
2023-11-26T04:07:42.494Z,54.15
2023-11-26T04:10:09.304Z,55.08
2023-11-26T04:12:36.152Z,55.64
2023-11-26T04:15:05.087Z,55.51
2023-11-26T04:17:32.496Z,54.41
2023-11-26T04:20:00.222Z,54.16
2023-11-26T04:22:27.493Z,55.15
2023-11-26T04:24:58.247Z,54.66
2023-11-26T04:27:24.803Z,55.54
2023-11-26T04:29:51.338Z,54.55
2023-11-26T04:32:17.962Z,54.82
2023-11-26T04:34:44.413Z,54.78
2023-11-26T04:37:10.924Z,55.71
2023-11-26T04:39:37.710Z,56.27
2023-11-26T04:42:04.337Z,54.61
2023-11-26T04:44:30.787Z,53.52
2023-11-26T04:46:57.410Z,52.85
2023-11-26T04:49:23.864Z,52.35
2023-11-26T04:51:50.219Z,54.54
2023-11-26T04:54:16.632Z,55.19
2023-11-26T04:56:43.423Z,55.11
2023-11-26T04:59:09.870Z,54.88
2023-11-26T05:01:36.648Z,55.74
2023-11-26T05:04:03.512Z,54.18
2023-11-26T05:06:30.046Z,54.38
2023-11-26T05:08:56.538Z,53.82
2023-11-26T05:11:23.088Z,53.66
2023-11-26T05:13:49.557Z,53.22
2023-11-26T05:16:16.070Z,54.18
2023-11-26T05:18:44.688Z,54.51
2023-11-26T05:21:11.174Z,54.30
2023-11-26T05:23:37.653Z,53.18
2023-11-26T05:26:04.261Z,53.38
2023-11-26T05:28:30.943Z,55.26
2023-11-26T05:30:58.066Z,54.30
2023-11-26T05:33:24.616Z,52.80
2023-11-26T05:35:53.460Z,52.69
2023-11-26T05:38:20.630Z,51.81
2023-11-26T05:40:47.180Z,55.00
2023-11-26T05:43:13.740Z,55.03
2023-11-26T05:45:40.317Z,54.92
2023-11-26T05:48:07.296Z,54.48
2023-11-26T05:50:34.000Z,53.79
2023-11-26T05:55:29.391Z,53.86
2023-11-26T05:57:55.808Z,54.35
2023-11-26T06:00:22.396Z,54.61
2023-11-26T06:02:49.054Z,53.55
2023-11-26T06:05:15.753Z,54.69
2023-11-26T06:07:42.189Z,52.75
2023-11-26T06:10:08.611Z,52.90
2023-11-26T06:12:35.266Z,53.10
2023-11-26T06:15:02.475Z,52.50
2023-11-26T06:17:29.145Z,52.41
2023-11-26T06:19:55.894Z,52.81
2023-11-26T06:22:22.579Z,50.73
2023-11-26T06:24:49.245Z,50.83
2023-11-26T06:27:15.828Z,53.18
2023-11-26T06:29:43.891Z,51.60
2023-11-26T06:32:10.750Z,54.98
2023-11-26T06:34:37.325Z,55.62
2023-11-26T06:37:04.993Z,56.16
2023-11-26T06:39:31.686Z,54.89
2023-11-26T06:41:59.155Z,53.37
2023-11-26T06:44:25.642Z,53.61
2023-11-26T06:46:52.230Z,53.22
2023-11-26T06:49:18.721Z,54.24
2023-11-26T06:51:45.262Z,54.43
2023-11-26T06:54:11.992Z,53.83
2023-11-26T06:56:41.095Z,54.66
2023-11-26T06:59:07.567Z,53.65
2023-11-26T07:01:35.142Z,54.91
2023-11-26T07:04:03.358Z,52.94
2023-11-26T07:06:29.990Z,51.33
2023-11-26T07:08:56.581Z,50.64
2023-11-26T07:11:23.140Z,51.07
2023-11-26T07:13:49.700Z,49.69
2023-11-26T07:16:16.114Z,49.91
2023-11-26T07:18:42.610Z,48.28
2023-11-26T07:21:09.095Z,47.19
2023-11-26T07:23:35.887Z,47.08
2023-11-26T07:26:02.358Z,47.67
2023-11-26T07:28:28.822Z,46.69
2023-11-26T07:30:55.293Z,46.58
2023-11-26T07:33:22.164Z,46.10
2023-11-26T07:35:51.209Z,45.96
2023-11-26T07:38:17.855Z,45.35
2023-11-26T07:40:44.739Z,49.75
2023-11-26T07:43:11.310Z,45.59
2023-11-26T07:45:38.924Z,44.86
2023-11-26T07:48:05.509Z,44.51
2023-11-26T07:50:32.405Z,45.25
2023-11-26T07:52:58.872Z,44.84
2023-11-26T07:55:25.370Z,44.54
2023-11-26T07:57:51.937Z,45.76
2023-11-26T08:00:18.520Z,45.76
2023-11-26T08:02:49.974Z,44.65
2023-11-26T08:05:16.794Z,44.00
2023-11-26T08:07:46.860Z,43.18
2023-11-26T08:10:13.823Z,42.97
2023-11-26T08:12:41.240Z,44.37
2023-11-26T08:15:09.833Z,43.83
2023-11-26T08:17:36.749Z,45.64
2023-11-26T08:20:03.446Z,43.64
2023-11-26T08:22:31.016Z,44.31
2023-11-26T08:24:57.446Z,43.96
2023-11-26T08:27:23.940Z,44.46
2023-11-26T08:29:50.549Z,44.83
2023-11-26T08:32:16.945Z,45.35
2023-11-26T08:34:43.392Z,44.91
2023-11-26T08:37:16.049Z,45.17
2023-11-26T08:39:46.641Z,45.05
2023-11-26T08:42:13.338Z,44.71
2023-11-26T08:44:42.563Z,45.35
2023-11-26T08:47:09.408Z,48.00
2023-11-26T08:49:35.928Z,47.07
2023-11-26T08:52:02.404Z,46.88
2023-11-26T08:54:29.250Z,48.05
2023-11-26T08:56:56.291Z,50.00
2023-11-26T08:59:22.837Z,48.46
2023-11-26T09:01:49.663Z,49.43
2023-11-26T09:04:16.288Z,49.51
2023-11-26T09:06:42.995Z,49.51
2023-11-26T09:09:10.308Z,48.63
2023-11-26T09:11:37.050Z,49.46
2023-11-26T09:14:03.527Z,49.87
2023-11-26T09:16:29.976Z,49.23
2023-11-26T09:18:56.446Z,49.04
2023-11-26T09:21:22.977Z,48.24
2023-11-26T09:23:50.534Z,48.55
2023-11-26T09:26:19.579Z,48.20
2023-11-26T09:28:51.328Z,47.07
2023-11-26T09:31:23.840Z,48.60
2023-11-26T09:33:50.562Z,48.37
2023-11-26T09:36:17.584Z,48.42
2023-11-26T09:38:44.490Z,48.54
2023-11-26T09:41:11.089Z,48.02
2023-11-26T09:43:37.550Z,49.65
2023-11-26T09:46:04.172Z,49.29
2023-11-26T09:48:33.055Z,50.17
2023-11-26T09:50:59.472Z,49.89
2023-11-26T09:53:25.922Z,48.37
2023-11-26T09:55:52.640Z,48.57
2023-11-26T09:58:19.112Z,49.19
2023-11-26T10:00:46.792Z,48.69
2023-11-26T10:03:15.961Z,48.27
2023-11-26T10:05:44.028Z,46.69
2023-11-26T10:08:10.707Z,46.88
2023-11-26T10:10:37.201Z,47.04
2023-11-26T10:13:03.989Z,46.48
2023-11-26T10:15:30.698Z,46.63
2023-11-26T10:17:57.506Z,47.53
2023-11-26T10:20:24.196Z,46.30
2023-11-26T10:22:52.830Z,46.16
2023-11-26T10:25:21.259Z,45.96
2023-11-26T10:27:48.124Z,46.79
2023-11-26T10:30:16.057Z,46.23
2023-11-26T10:32:43.883Z,46.58
2023-11-26T10:35:10.872Z,45.07
2023-11-26T10:37:39.706Z,46.24
2023-11-26T10:40:06.435Z,45.23
2023-11-26T10:42:33.668Z,44.88
2023-11-26T10:45:04.613Z,45.58
2023-11-26T10:47:32.080Z,44.32
2023-11-26T10:49:59.427Z,44.09
2023-11-26T10:52:26.268Z,44.63
2023-11-26T10:54:56.809Z,46.02
2023-11-26T10:57:23.591Z,45.62
2023-11-26T10:59:57.609Z,49.66
2023-11-26T11:02:32.537Z,46.82
2023-11-26T11:04:59.184Z,45.17
2023-11-26T11:07:29.835Z,45.30
2023-11-26T11:09:56.485Z,43.58
2023-11-26T11:12:23.981Z,44.60
2023-11-26T11:14:51.461Z,45.81
2023-11-26T11:17:20.215Z,44.82
2023-11-26T11:19:55.291Z,43.76
2023-11-26T11:22:24.512Z,43.96
2023-11-26T11:27:31.788Z,45.52
2023-11-26T11:29:59.221Z,43.92
2023-11-26T11:32:26.714Z,43.92
2023-11-26T11:34:54.635Z,43.70
2023-11-26T11:37:21.951Z,44.95
2023-11-26T11:39:52.987Z,44.34
2023-11-26T11:42:20.382Z,43.60
2023-11-26T11:44:47.104Z,44.26
2023-11-26T11:47:13.922Z,43.59
2023-11-26T11:49:40.571Z,43.56
2023-11-26T11:52:09.962Z,43.70
2023-11-26T11:54:36.926Z,43.38
2023-11-26T11:57:03.416Z,42.97
2023-11-26T11:59:37.791Z,42.12
2023-11-26T12:02:04.542Z,41.70
2023-11-26T12:04:31.310Z,42.73
2023-11-26T12:06:58.347Z,42.01
2023-11-26T12:09:25.055Z,41.65
2023-11-26T12:11:51.564Z,41.28
2023-11-26T12:14:18.393Z,41.05
2023-11-26T12:16:44.906Z,40.07
2023-11-26T12:19:12.489Z,39.29
2023-11-26T12:21:41.409Z,39.13
2023-11-26T12:24:08.620Z,39.76
2023-11-26T12:26:35.153Z,39.12
2023-11-26T12:29:08.741Z,38.60
2023-11-26T12:31:38.014Z,37.85
2023-11-26T12:34:05.716Z,37.92
2023-11-26T12:36:32.385Z,37.28
2023-11-26T12:39:00.156Z,37.13
2023-11-26T12:41:27.292Z,37.11
2023-11-26T12:43:54.172Z,36.87
2023-11-26T12:46:20.668Z,38.23
2023-11-26T12:48:47.308Z,37.22
2023-11-26T12:51:14.113Z,37.61
2023-11-26T12:53:40.640Z,37.43
2023-11-26T12:56:07.316Z,37.48
2023-11-26T12:58:34.525Z,38.38
2023-11-26T13:01:01.039Z,38.15
2023-11-26T13:03:27.827Z,38.46
2023-11-26T13:05:54.348Z,38.04
2023-11-26T13:08:21.704Z,39.39
2023-11-26T13:10:50.146Z,38.29
2023-11-26T13:13:18.093Z,38.30
2023-11-26T13:15:45.038Z,38.13
2023-11-26T13:18:13.996Z,38.58
2023-11-26T13:20:41.123Z,37.58
2023-11-26T13:23:08.523Z,38.94
2023-11-26T13:25:35.171Z,39.23
2023-11-26T13:28:01.777Z,38.21
2023-11-26T13:30:28.915Z,37.92
2023-11-26T13:32:55.692Z,38.35
2023-11-26T13:35:22.662Z,39.28
2023-11-26T13:37:49.042Z,38.86
2023-11-26T13:40:15.803Z,37.92
2023-11-26T13:42:42.291Z,39.22
2023-11-26T13:45:13.401Z,37.83
2023-11-26T13:47:49.884Z,37.97
2023-11-26T13:50:21.206Z,38.16
2023-11-26T13:52:47.973Z,37.77
2023-11-26T13:55:14.916Z,37.73
2023-11-26T13:57:41.453Z,37.61
2023-11-26T14:00:08.091Z,36.84
2023-11-26T14:02:37.333Z,37.08
2023-11-26T14:05:04.724Z,37.24
2023-11-26T14:07:31.473Z,36.90
2023-11-26T14:09:58.028Z,37.93
2023-11-26T14:12:24.794Z,40.59
2023-11-26T14:14:51.247Z,38.00
2023-11-26T14:17:17.683Z,38.98
2023-11-26T14:19:44.115Z,42.68
2023-11-26T14:22:10.537Z,38.90
2023-11-26T14:24:37.479Z,37.22
2023-11-26T14:27:04.176Z,38.18
2023-11-26T14:29:32.357Z,38.53
2023-11-26T14:32:01.257Z,38.30
2023-11-26T14:34:28.075Z,38.31
2023-11-26T14:36:55.254Z,39.05
2023-11-26T14:39:22.796Z,40.09
2023-11-26T14:41:49.710Z,39.72
2023-11-26T14:44:16.311Z,38.60
2023-11-26T14:46:43.135Z,38.13
2023-11-26T14:49:09.661Z,37.14
2023-11-26T14:51:36.155Z,37.98
2023-11-26T14:54:02.760Z,37.36
2023-11-26T14:56:29.198Z,36.84
2023-11-26T14:58:57.248Z,37.03
2023-11-26T15:01:23.994Z,37.50
2023-11-26T15:03:53.991Z,38.70
2023-11-26T15:06:21.394Z,38.62
2023-11-26T15:08:50.462Z,38.14
2023-11-26T15:11:18.039Z,38.32
2023-11-26T15:13:44.551Z,38.16
2023-11-26T15:16:13.979Z,39.29
2023-11-26T15:18:40.489Z,40.20
2023-11-26T15:21:07.325Z,39.21
2023-11-26T15:23:34.911Z,38.88
2023-11-26T15:26:01.352Z,39.61
2023-11-26T15:28:30.173Z,38.01
2023-11-26T15:30:56.726Z,38.05
2023-11-26T15:33:26.856Z,38.78
2023-11-26T15:35:53.617Z,38.13
2023-11-26T15:38:20.363Z,37.93
2023-11-26T15:40:47.476Z,38.03
2023-11-26T15:43:14.223Z,37.99
2023-11-26T15:45:40.775Z,39.54
2023-11-26T15:48:07.298Z,38.20
2023-11-26T15:50:33.756Z,38.20
2023-11-26T15:53:00.465Z,37.90
2023-11-26T15:55:27.202Z,37.84
2023-11-26T15:57:54.169Z,37.71
2023-11-26T16:00:20.920Z,37.82
2023-11-26T16:02:47.623Z,39.65
2023-11-26T16:05:14.442Z,40.87
2023-11-26T16:07:43.780Z,40.41
2023-11-26T16:10:10.523Z,40.95
2023-11-26T16:12:37.480Z,40.72
2023-11-26T16:15:04.208Z,40.12
2023-11-26T16:17:34.492Z,40.19
2023-11-26T16:20:01.720Z,39.87
2023-11-26T16:22:28.352Z,40.49
2023-11-26T16:24:55.093Z,40.72
2023-11-26T16:27:21.548Z,40.66
2023-11-26T16:29:48.238Z,40.84
2023-11-26T16:32:14.864Z,41.42
2023-11-26T16:34:41.972Z,41.42
2023-11-26T16:37:09.560Z,41.63
2023-11-26T16:39:36.204Z,41.03
2023-11-26T16:42:04.184Z,40.63
2023-11-26T16:44:32.759Z,40.13
2023-11-26T16:46:59.324Z,40.53
2023-11-26T16:49:26.367Z,40.34
2023-11-26T16:51:53.120Z,39.63
2023-11-26T16:54:20.482Z,38.85
2023-11-26T16:56:47.595Z,39.46
2023-11-26T16:59:14.460Z,39.19
2023-11-26T17:01:41.542Z,38.97
2023-11-26T17:04:09.744Z,38.90
2023-11-26T17:06:37.226Z,39.29
2023-11-26T17:09:04.022Z,39.45
2023-11-26T17:11:31.026Z,39.48
2023-11-26T17:13:58.256Z,40.02
2023-11-26T17:16:25.658Z,39.67
2023-11-26T17:19:00.409Z,39.80
2023-11-26T17:21:27.421Z,40.49
2023-11-26T17:23:54.464Z,40.86
2023-11-26T17:26:21.651Z,40.66
2023-11-26T17:28:49.773Z,40.88
2023-11-26T17:31:17.116Z,41.25
2023-11-26T17:33:44.555Z,41.39
2023-11-26T17:36:11.701Z,41.56
2023-11-26T17:38:41.247Z,41.23
2023-11-26T17:41:08.629Z,41.39
2023-11-26T17:43:37.671Z,40.88
2023-11-26T17:46:05.970Z,41.17
2023-11-26T17:48:33.757Z,41.51
2023-11-26T17:51:02.118Z,41.64
2023-11-26T17:53:29.470Z,42.21
2023-11-26T17:55:57.334Z,41.96
2023-11-26T17:58:30.180Z,41.85
2023-11-26T18:00:57.823Z,42.74
2023-11-26T18:03:28.097Z,42.77
2023-11-26T18:05:55.468Z,42.66
2023-11-26T18:08:23.353Z,43.16
2023-11-26T18:10:51.344Z,42.93
2023-11-26T18:13:19.788Z,43.36
2023-11-26T18:15:49.405Z,43.56
2023-11-26T18:18:19.997Z,43.64
2023-11-26T18:20:47.625Z,45.06
2023-11-26T18:23:16.565Z,44.50
2023-11-26T18:25:44.330Z,44.27
2023-11-26T18:28:13.859Z,45.40
2023-11-26T18:30:41.513Z,45.18
2023-11-26T18:33:11.818Z,45.83
2023-11-26T18:35:39.279Z,45.54
2023-11-26T18:38:09.071Z,45.65
2023-11-26T18:40:36.798Z,45.90
2023-11-26T18:43:04.258Z,46.00
2023-11-26T18:45:35.342Z,46.71
2023-11-26T18:48:02.938Z,46.31
2023-11-26T18:50:30.356Z,45.64
2023-11-26T18:52:57.837Z,46.18
2023-11-26T18:55:26.098Z,46.17
2023-11-26T18:57:53.505Z,46.33
2023-11-26T19:00:21.672Z,46.77
2023-11-26T19:02:50.186Z,46.61
2023-11-26T19:05:18.223Z,46.24
2023-11-26T19:07:45.687Z,45.55
2023-11-26T19:10:13.212Z,45.49
2023-11-26T19:12:40.866Z,47.08
2023-11-26T19:15:09.448Z,46.17
2023-11-26T19:17:41.736Z,46.13
2023-11-26T19:20:10.546Z,46.26
2023-11-26T19:22:38.643Z,46.12
2023-11-26T19:25:07.983Z,46.24
2023-11-26T19:27:35.879Z,46.77
2023-11-26T19:30:04.993Z,46.30
2023-11-26T19:32:33.528Z,46.06
2023-11-26T19:35:05.702Z,46.35
2023-11-26T19:37:40.505Z,46.25
2023-11-26T19:40:17.683Z,45.44
2023-11-26T19:42:45.854Z,45.79
2023-11-26T19:45:13.524Z,45.44
2023-11-26T19:47:41.013Z,45.44
2023-11-26T19:50:08.999Z,45.12
2023-11-26T19:52:36.590Z,44.99
2023-11-26T19:55:06.943Z,45.73
2023-11-26T19:57:35.634Z,46.02
2023-11-26T20:00:05.407Z,46.41
2023-11-26T20:02:32.986Z,45.87
2023-11-26T20:05:00.696Z,45.86
2023-11-26T20:07:30.508Z,45.95
2023-11-26T20:10:01.138Z,46.33
2023-11-26T20:15:02.190Z,46.22
2023-11-26T20:17:35.723Z,47.31
2023-11-26T20:20:03.755Z,47.11
2023-11-26T20:22:34.282Z,46.66
2023-11-26T20:25:02.180Z,47.99
2023-11-26T20:27:29.701Z,48.17
2023-11-26T20:29:57.228Z,47.58
2023-11-26T20:32:26.118Z,48.09
2023-11-26T20:34:54.018Z,47.46
2023-11-26T20:37:21.589Z,48.35
2023-11-26T20:39:49.021Z,48.25
2023-11-26T20:42:16.336Z,49.29
2023-11-26T20:44:43.772Z,49.28
2023-11-26T20:47:13.994Z,49.06
2023-11-26T20:49:41.496Z,48.37
2023-11-26T20:52:08.968Z,48.72
2023-11-26T20:54:39.394Z,48.54
2023-11-26T20:57:06.855Z,47.84
2023-11-26T20:59:36.962Z,48.64
2023-11-26T21:02:03.660Z,48.37
2023-11-26T21:04:30.641Z,48.28
2023-11-26T21:06:57.336Z,48.47
2023-11-26T21:09:23.860Z,48.67
2023-11-26T21:11:51.835Z,48.97
2023-11-26T21:14:18.318Z,49.33
2023-11-26T21:16:45.144Z,48.70
2023-11-26T21:19:11.896Z,48.46
2023-11-26T21:21:38.406Z,48.44
2023-11-26T21:24:05.961Z,48.22
2023-11-26T21:26:33.706Z,48.02
2023-11-26T21:29:00.306Z,48.59
2023-11-26T21:31:27.508Z,49.54
2023-11-26T21:33:54.039Z,48.71
2023-11-26T21:36:22.495Z,48.54
2023-11-26T21:38:50.906Z,48.93
2023-11-26T21:41:17.489Z,48.42
2023-11-26T21:43:45.682Z,48.36
2023-11-26T21:46:23.239Z,49.22
2023-11-26T21:48:58.791Z,49.18
2023-11-26T21:54:07.423Z,48.64
2023-11-26T21:56:34.168Z,49.23
2023-11-26T21:59:01.518Z,50.17
2023-11-26T22:01:43.674Z,50.29
2023-11-26T22:04:12.306Z,50.90
2023-11-26T22:06:42.909Z,51.98
2023-11-26T22:09:10.100Z,51.13
2023-11-26T22:11:37.807Z,50.71
2023-11-26T22:14:06.780Z,49.76
2023-11-26T22:19:29.021Z,51.41
2023-11-26T22:27:19.689Z,50.72
2023-11-26T22:29:58.398Z,52.09
2023-11-26T22:35:06.380Z,51.73
2023-11-26T22:45:41.797Z,52.02
2023-11-26T22:48:11.043Z,52.74
2023-11-26T22:50:47.731Z,52.27
2023-11-26T22:53:21.478Z,53.89
2023-11-26T22:55:48.672Z,53.26
2023-11-26T22:58:15.939Z,52.51
2023-11-26T23:00:46.922Z,52.44
2023-11-26T23:03:13.712Z,52.34
2023-11-26T23:05:41.272Z,51.90
2023-11-26T23:08:08.196Z,51.68
2023-11-26T23:10:35.253Z,51.92
2023-11-26T23:13:02.271Z,51.68
2023-11-26T23:15:35.735Z,52.34
2023-11-26T23:18:13.940Z,52.64
2023-11-26T23:20:44.306Z,52.17
2023-11-26T23:23:11.730Z,52.46
2023-11-26T23:28:19.443Z,53.13
2023-11-26T23:30:46.367Z,53.14
2023-11-26T23:33:15.977Z,53.95
2023-11-26T23:35:44.830Z,54.80
2023-11-26T23:38:13.135Z,56.40
2023-11-26T23:40:43.795Z,56.22
2023-11-26T23:43:12.549Z,55.60
2023-11-26T23:45:40.692Z,55.27
2023-11-26T23:48:07.802Z,55.48
2023-11-26T23:50:34.685Z,55.07
2023-11-26T23:53:04.095Z,55.09
2023-11-26T23:55:32.615Z,54.99
2023-11-26T23:57:59.789Z,54.60
